Time;durP1;ratioP1;P1;durP2;ratioP2;P2;SDS_P1;SDS_P2;PMS_P1;PMS_P2;Temp;Humidity;BMP_temperature;BMP_pressure;BME280_temperature;BME280_humidity;BME280_pressure;Samples;Min_cycle;Max_cycle;Signal;HPM_P1;HPM_P2
2021/11/16 00:02:45;;;;;;;5.85;3.45;;;;;;;;;;21174647;28;20047;-57
2021/11/16 00:12:47;;;;;;;5.97;3.13;;;;;;;;;;21173239;28;20058;-57
2021/11/16 00:22:49;;;;;;;7.05;4.10;;;;;;;;;;21172111;28;20511;-58
2021/11/16 00:32:51;;;;;;;3.60;2.40;;;;;;;;;;21171743;28;20415;-57
2021/11/16 00:42:53;;;;;;;6.15;1.98;;;;;;;;;;21171766;28;20054;-57
2021/11/16 00:52:55;;;;;;;4.97;2.10;;;;;;;;;;21171125;28;20052;-55
2021/11/16 01:02:56;;;;;;;6.45;2.75;;;;;;;;;;21171206;28;20484;-59
2021/11/16 01:12:59;;;;;;;4.75;2.42;;;;;;;;;;21168662;28;20061;-57
2021/11/16 01:23:02;;;;;;;3.78;2.08;;;;;;;;;;21168011;28;20047;-57
2021/11/16 01:33:15;;;;;;;3.10;2.22;;;;;;;;;;21167167;28;20087;-57
2021/11/16 01:43:17;;;;;;;3.95;2.25;;;;;;;;;;21165618;28;20044;-58
2021/11/16 01:53:20;;;;;;;4.30;2.63;;;;;;;;;;21165717;28;20047;-57
2021/11/16 02:03:23;;;;;;;4.50;2.75;;;;;;;;;;21166411;28;20496;-57
2021/11/16 02:13:25;;;;;;;3.50;2.33;;;;;;;;;;21164638;28;20043;-55
2021/11/16 02:23:27;;;;;;;3.33;2.22;;;;;;;;;;21164166;28;20044;-55
2021/11/16 02:33:28;;;;;;;2.90;1.90;;;;;;;;;;21163116;28;20108;-55
2021/11/16 02:43:31;;;;;;;4.28;2.25;;;;;;;;;;21162678;28;20044;-55
2021/11/16 02:53:35;;;;;;;5.43;2.72;;;;;;;;;;21176857;28;20051;-56
2021/11/16 03:03:37;;;;;;;4.03;2.65;;;;;;;;;;21179708;28;20051;-56
2021/11/16 03:13:44;;;;;;;5.50;2.80;;;;;;;;;;21178490;28;20043;-59
2021/11/16 03:23:51;;;;;;;3.58;2.40;;;;;;;;;;21177638;28;20050;-56
2021/11/16 03:33:53;;;;;;;3.75;2.65;;;;;;;;;;21176948;28;20515;-59
2021/11/16 03:43:57;;;;;;;4.70;2.63;;;;;;;;;;21176036;28;20040;-58
2021/11/16 03:54:01;;;;;;;3.10;2.17;;;;;;;;;;21176496;28;20081;-58
2021/11/16 04:04:04;;;;;;;4.28;2.63;;;;;;;;;;21173785;28;20463;-59
2021/11/16 04:14:08;;;;;;;4.33;2.33;;;;;;;;;;21174046;28;20052;-56
2021/11/16 04:24:12;;;;;;;3.50;2.47;;;;;;;;;;21172942;28;20052;-57
2021/11/16 04:34:14;;;;;;;5.85;3.10;;;;;;;;;;21172679;28;20093;-58
2021/11/16 04:44:17;;;;;;;3.85;2.72;;;;;;;;;;21171662;28;20468;-56
2021/11/16 05:04:27;;;;;;;4.38;2.45;;;;;;;;;;21170084;28;20048;-56
2021/11/16 05:14:32;;;;;;;4.78;3.00;;;;;;;;;;21168930;28;20054;-58
2021/11/16 05:24:37;;;;;;;4.25;2.63;;;;;;;;;;21168581;28;20124;-57
2021/11/16 05:34:41;;;;;;;4.47;2.90;;;;;;;;;;21167432;28;20052;-57
2021/11/16 05:44:43;;;;;;;4.25;2.90;;;;;;;;;;21166520;28;20048;-57
2021/11/16 05:54:45;;;;;;;3.53;3.05;;;;;;;;;;21165860;28;20059;-57
2021/11/16 06:04:47;;;;;;;4.75;3.40;;;;;;;;;;21165711;28;20501;-57
2021/11/16 06:14:50;;;;;;;5.03;3.45;;;;;;;;;;21164320;28;20135;-57
2021/11/16 06:24:52;;;;;;;4.35;3.05;;;;;;;;;;21163180;28;20048;-55
2021/11/16 06:34:53;;;;;;;5.20;3.05;;;;;;;;;;21162805;28;20047;-58
2021/11/16 06:44:55;;;;;;;5.45;3.42;;;;;;;;;;21162937;28;20126;-57
2021/11/16 06:54:58;;;;;;;6.97;3.72;;;;;;;;;;21162477;28;20458;-54
2021/11/16 07:05:08;;;;;;;5.93;4.00;;;;;;;;;;21162162;28;20047;-55
2021/11/16 07:15:10;;;;;;;6.45;4.80;;;;;;;;;;21162136;28;20454;-55
2021/11/16 07:25:13;;;;;;;5.22;3.50;;;;;;;;;;21160555;28;20055;-55
2021/11/16 07:35:16;;;;;;;7.20;3.95;;;;;;;;;;21165194;28;20078;-57
2021/11/16 07:45:26;;;;;;;10.68;4.55;;;;;;;;;;21175637;28;20050;-57
2021/11/16 07:55:28;;;;;;;9.45;4.68;;;;;;;;;;21175180;28;20101;-56
2021/11/16 08:16:07;;;;;;;11.23;7.15;;;;;;;;;;21173015;28;20051;-57
2021/11/16 08:26:08;;;;;;;8.48;5.30;;;;;;;;;;21171772;28;20407;-51
2021/11/16 08:36:10;;;;;;;11.02;5.07;;;;;;;;;;21170279;28;20415;-52
2021/11/16 08:46:17;;;;;;;9.13;5.93;;;;;;;;;;21169848;28;20127;-59
2021/11/16 08:56:27;;;;;;;12.23;5.97;;;;;;;;;;21172087;28;20394;-61
2021/11/16 09:06:30;;;;;;;14.20;6.53;;;;;;;;;;21152520;28;20522;-53
2021/11/16 09:16:33;;;;;;;13.55;5.97;;;;;;;;;;21167823;28;20044;-69
2021/11/16 09:26:48;;;;;;;12.23;5.95;;;;;;;;;;21167558;28;20134;-54
2021/11/16 09:36:59;;;;;;;12.07;5.63;;;;;;;;;;21166354;28;20135;-55
2021/11/16 09:47:03;;;;;;;11.55;5.95;;;;;;;;;;21166183;28;20047;-55
2021/11/16 09:57:13;;;;;;;12.00;6.60;;;;;;;;;;21164867;28;20054;-57
2021/11/16 10:07:15;;;;;;;13.82;6.05;;;;;;;;;;21147644;28;20082;-55
2021/11/16 10:17:17;;;;;;;9.95;5.32;;;;;;;;;;21163887;28;20138;-64
2021/11/16 10:27:30;;;;;;;9.48;4.90;;;;;;;;;;21162601;28;20052;-55
2021/11/16 10:37:43;;;;;;;9.85;5.93;;;;;;;;;;21163110;28;20127;-53
2021/11/16 10:47:46;;;;;;;10.45;5.63;;;;;;;;;;21143999;28;20048;-52
2021/11/16 10:57:53;;;;;;;7.35;4.88;;;;;;;;;;21160642;28;20047;-60
2021/11/16 11:07:55;;;;;;;;;;;;;;;;;;21162820;28;20377;-56
2021/11/16 11:18:06;;;;;;;5.30;4.13;;;;;;;;;;21178116;28;19940;-66
2021/11/16 11:28:29;;;;;;;8.90;4.90;;;;;;;;;;21176751;28;20087;-60
2021/11/16 11:38:35;;;;;;;14.30;5.07;;;;;;;;;;21176690;28;20134;-58
2021/11/16 11:48:37;;;;;;;16.13;7.13;;;;;;;;;;21181973;28;20384;-59
2021/11/16 11:58:41;;;;;;;8.82;5.78;;;;;;;;;;21175237;28;20051;-57
2021/11/16 12:08:43;;;;;;;8.48;5.80;;;;;;;;;;21133145;28;20048;-62
2021/11/16 12:18:46;;;;;;;5.82;4.88;;;;;;;;;;21087897;28;20056;-67
2021/11/16 12:28:48;;;;;;;8.85;5.03;;;;;;;;;;21132469;28;20388;-60
2021/11/16 12:38:51;;;;;;;12.32;6.30;;;;;;;;;;21161916;28;20059;-56
2021/11/16 12:48:55;;;;;;;12.00;7.28;;;;;;;;;;21086266;28;20047;-66
2021/11/16 12:58:57;;;;;;;11.07;4.87;;;;;;;;;;21085985;28;20040;-61
2021/11/16 13:09:00;;;;;;;12.35;6.38;;;;;;;;;;21084837;28;20101;-62
2021/11/16 13:19:04;;;;;;;9.90;6.75;;;;;;;;;;21084719;28;20056;-57
2021/11/16 13:29:22;;;;;;;9.75;7.25;;;;;;;;;;21131118;28;20540;-57
2021/11/16 13:39:30;;;;;;;8.82;6.32;;;;;;;;;;21167392;28;20052;-56
2021/11/16 13:49:39;;;;;;;16.60;8.30;;;;;;;;;;21166273;28;20054;-63
2021/11/16 13:59:43;;;;;;;11.60;7.25;;;;;;;;;;21166180;28;20047;-64
2021/11/16 14:09:47;;;;;;;;;;;;;;;;;;21148224;28;20055;-64
2021/11/16 14:19:51;;;;;;;8.13;6.15;;;;;;;;;;21165003;28;20383;-63
2021/11/16 14:30:03;;;;;;;7.70;5.70;;;;;;;;;;21162928;28;20051;-62
2021/11/16 14:40:15;;;;;;;3.38;2.47;;;;;;;;;;21163489;28;20506;-64
2021/11/16 14:50:24;;;;;;;9.75;3.95;;;;;;;;;;21162436;28;20056;-58
2021/11/16 15:00:31;;;;;;;3.55;2.33;;;;;;;;;;21162064;28;20067;-55
2021/11/16 15:10:33;;;;;;;3.53;2.00;;;;;;;;;;21161994;28;20056;-59
2021/11/16 15:20:46;;;;;;;2.22;1.30;;;;;;;;;;21161639;28;20134;-64
2021/11/16 15:30:59;;;;;;;2.85;2.08;;;;;;;;;;21160815;28;20104;-63
2021/11/16 15:41:04;;;;;;;5.40;2.90;;;;;;;;;;21160846;28;20105;-62
2021/11/16 15:51:36;;;;;;;6.77;2.90;;;;;;;;;;21160456;28;20048;-62
2021/11/16 16:01:39;;;;;;;3.88;1.88;;;;;;;;;;21171289;28;20493;-57
2021/11/16 16:11:42;;;;;;;6.25;3.28;;;;;;;;;;21174111;28;20420;-67
2021/11/16 16:21:45;;;;;;;6.18;3.55;;;;;;;;;;21155214;28;20101;-66
2021/11/16 16:31:47;;;;;;;6.07;3.30;;;;;;;;;;21172625;28;20094;-59
2021/11/16 16:41:52;;;;;;;6.13;3.20;;;;;;;;;;21172681;28;20519;-56
2021/11/16 16:51:55;;;;;;;7.05;3.40;;;;;;;;;;21153086;28;20047;-57
2021/11/16 17:02:08;;;;;;;5.97;3.03;;;;;;;;;;21170481;28;20055;-58
2021/11/16 17:12:12;;;;;;;5.47;2.67;;;;;;;;;;21168144;28;20066;-62
2021/11/16 17:22:14;;;;;;;7.00;2.75;;;;;;;;;;21150096;28;20487;-62
2021/11/16 17:32:17;;;;;;;6.10;2.70;;;;;;;;;;21167128;28;20101;-59
2021/11/16 17:42:19;;;;;;;5.88;2.67;;;;;;;;;;21147835;28;20086;-56
2021/11/16 17:52:21;;;;;;;7.13;3.13;;;;;;;;;;21165958;28;20048;-65
2021/11/16 18:02:24;;;;;;;13.95;7.20;;;;;;;;;;21147165;28;20040;-58
2021/11/16 18:12:30;;;;;;;12.65;4.97;;;;;;;;;;21165157;28;20158;-57
2021/11/16 18:22:32;;;;;;;12.63;5.45;;;;;;;;;;21163670;28;20048;-57
2021/11/16 18:32:34;;;;;;;11.55;6.18;;;;;;;;;;21162727;28;20055;-56
2021/11/16 18:42:56;;;;;;;10.27;4.32;;;;;;;;;;21163518;28;20571;-55
2021/11/16 18:52:58;;;;;;;8.82;4.45;;;;;;;;;;21162470;28;20496;-65
2021/11/16 19:02:59;;;;;;;11.98;4.60;;;;;;;;;;21162525;28;20043;-63
2021/11/16 19:13:01;;;;;;;6.57;3.35;;;;;;;;;;21161808;28;20055;-66
2021/11/16 19:23:05;;;;;;;6.78;3.22;;;;;;;;;;21162428;28;20078;-65
2021/11/16 19:33:09;;;;;;;17.90;4.93;;;;;;;;;;21169112;28;20395;-66
2021/11/16 19:43:12;;;;;;;11.52;4.35;;;;;;;;;;21176761;28;20488;-57
2021/11/16 19:53:14;;;;;;;10.48;3.53;;;;;;;;;;21158205;28;20059;-64
2021/11/16 20:03:16;;;;;;;16.80;7.20;;;;;;;;;;21175805;28;20385;-59
2021/11/16 20:13:19;;;;;;;21.00;13.07;;;;;;;;;;21156465;28;20044;-57
2021/11/16 20:23:22;;;;;;;4.80;2.30;;;;;;;;;;21156652;28;20044;-57
2021/11/16 20:33:27;;;;;;;3.90;2.20;;;;;;;;;;21172178;28;20495;-56
2021/11/16 20:43:44;;;;;;;3.57;2.33;;;;;;;;;;21171224;28;20044;-57
2021/11/16 21:04:07;;;;;;;3.28;2.10;;;;;;;;;;21171998;28;20048;-57
2021/11/16 21:14:09;;;;;;;2.85;2.10;;;;;;;;;;21170436;28;20047;-63
2021/11/16 21:24:11;;;;;;;7.53;3.13;;;;;;;;;;21169560;28;20093;-65
2021/11/16 21:34:14;;;;;;;5.20;2.08;;;;;;;;;;21169636;28;20047;-58
2021/11/16 21:44:16;;;;;;;4.38;2.42;;;;;;;;;;21166983;28;20078;-56
2021/11/16 21:54:19;;;;;;;6.65;2.65;;;;;;;;;;21148568;28;20048;-57
2021/11/16 22:04:24;;;;;;;3.65;1.88;;;;;;;;;;21147114;28;20071;-58
2021/11/16 22:14:26;;;;;;;3.37;1.93;;;;;;;;;;21148341;28;20551;-63
2021/11/16 22:24:28;;;;;;;3.35;1.80;;;;;;;;;;21166888;28;20134;-66
2021/11/16 22:34:37;;;;;;;2.45;1.70;;;;;;;;;;21165512;28;20066;-62
2021/11/16 22:44:39;;;;;;;2.53;1.58;;;;;;;;;;21164313;28;20055;-59
2021/11/16 22:54:41;;;;;;;3.38;2.25;;;;;;;;;;21162904;28;20169;-56
